Time;durP1;ratioP1;P1;durP2;ratioP2;P2;SDS_P1;SDS_P2;PMS_P1;PMS_P2;Temp;Humidity;BMP_temperature;BMP_pressure;BME280_temperature;BME280_humidity;BME280_pressure;Samples;Min_cycle;Max_cycle;Signal;HPM_P1;HPM_P2
2022/01/24 00:00:51;;;;;;;54.47;17.80;;;-1.20;75.30;;;;;;5161606;27;46307;-61
2022/01/24 00:03:16;;;;;;;59.17;17.80;;;-1.30;75.30;;;;;;5154284;27;46662;-63
2022/01/24 00:05:42;;;;;;;44.93;17.60;;;-1.30;75.30;;;;;;5157211;27;47078;-63
2022/01/24 00:08:08;;;;;;;54.10;20.13;;;-1.30;75.50;;;;;;5159663;27;46312;-61
2022/01/24 00:10:36;;;;;;;51.27;19.07;;;-1.30;75.50;;;;;;5158009;27;46356;-61
2022/01/24 00:13:43;;;;;;;45.40;18.17;;;-1.30;75.60;;;;;;5152802;27;46376;-62
2022/01/24 00:26:41;;;;;;;40.22;17.83;;;-1.40;75.70;;;;;;5157263;27;46300;-63
2022/01/24 00:26:50;;;;;;;40.70;17.23;;;-1.60;75.90;;;;;;5155568;27;46363;-63
2022/01/24 00:29:19;;;;;;;38.65;15.70;;;-1.70;75.90;;;;;;5151396;27;46259;-64
2022/01/24 00:31:45;;;;;;;39.30;15.85;;;-1.70;76.00;;;;;;5151474;27;46352;-62
2022/01/24 00:34:11;;;;;;;31.30;15.18;;;-1.80;75.90;;;;;;5158922;27;46406;-63
2022/01/24 00:36:38;;;;;;;30.20;14.88;;;-1.80;76.10;;;;;;5153844;27;46726;-62
2022/01/24 00:39:05;;;;;;;29.15;14.57;;;-1.80;76.10;;;;;;5153626;27;46380;-63
2022/01/24 00:41:40;;;;;;;34.10;15.07;;;-1.90;76.00;;;;;;5156155;27;46383;-63
2022/01/24 00:46:51;;;;;;;31.35;14.45;;;-1.90;76.10;;;;;;5156585;27;46371;-64
2022/01/24 00:54:44;;;;;;;33.70;15.15;;;-2.00;75.90;;;;;;5151468;27;46275;-63
2022/01/24 00:57:11;;;;;;;38.78;17.00;;;-2.00;75.90;;;;;;5154521;27;46273;-64
2022/01/24 00:59:39;;;;;;;34.72;16.10;;;-2.00;76.00;;;;;;5156561;27;46340;-63
2022/01/24 01:02:06;;;;;;;29.67;15.20;;;-2.10;75.90;;;;;;5153422;27;46471;-64
2022/01/24 01:04:44;;;;;;;28.20;13.88;;;-2.10;76.00;;;;;;5162425;27;46339;-61
2022/01/24 01:07:10;;;;;;;30.20;14.88;;;-2.10;76.00;;;;;;5158081;27;46466;-63
2022/01/24 01:21:23;;;;;;;40.13;16.83;;;-2.20;76.40;;;;;;5157872;27;46524;-63
2022/01/24 01:23:23;;;;;;;30.85;16.05;;;-2.20;75.80;;;;;;5145841;27;46370;-64
2022/01/24 01:25:51;;;;;;;34.77;15.57;;;-2.30;75.80;;;;;;5152058;27;46532;-62
2022/01/24 01:28:17;;;;;;;37.60;16.58;;;-2.30;75.80;;;;;;5148004;27;46395;-62
2022/01/24 01:30:47;;;;;;;44.30;15.75;;;-2.30;75.70;;;;;;5150814;27;45919;-62
2022/01/24 01:33:22;;;;;;;30.60;14.60;;;-2.30;75.60;;;;;;5152373;27;45756;-63
2022/01/24 01:38:42;;;;;;;28.67;13.65;;;-2.10;75.40;;;;;;5154454;27;47106;-64
2022/01/24 01:57:31;;;;;;;34.92;15.57;;;-2.20;75.00;;;;;;5156939;27;46443;-63
2022/01/24 01:59:57;;;;;;;41.17;16.87;;;-2.20;75.00;;;;;;5152331;27;47072;-63
2022/01/24 02:02:22;;;;;;;39.47;17.00;;;-2.20;75.00;;;;;;5151056;27;46372;-64
2022/01/24 02:04:48;;;;;;;37.07;16.87;;;-2.20;75.00;;;;;;5152660;27;45790;-64
2022/01/24 02:07:15;;;;;;;40.40;17.90;;;-2.20;75.00;;;;;;5154978;27;46358;-63
2022/01/24 02:09:43;;;;;;;40.15;17.38;;;-1.80;75.20;;;;;;5157314;27;46593;-64
2022/01/24 02:12:10;;;;;;;43.42;19.05;;;-1.80;75.10;;;;;;5156781;27;46003;-64
2022/01/24 02:14:41;;;;;;;47.55;18.98;;;-1.80;75.20;;;;;;5156832;27;46409;-62
2022/01/24 02:17:13;;;;;;;40.03;17.60;;;-1.80;75.20;;;;;;5156948;27;46299;-64
2022/01/24 02:24:59;;;;;;;39.90;17.00;;;-1.90;75.20;;;;;;5161911;27;45738;-63
2022/01/24 02:27:28;;;;;;;33.97;14.57;;;-2.00;75.20;;;;;;5161388;27;46368;-63
2022/01/24 02:30:16;;;;;;;34.75;14.93;;;-2.00;75.30;;;;;;5159102;27;47030;-63
2022/01/24 02:32:45;;;;;;;28.02;13.55;;;-2.10;75.40;;;;;;5155803;27;46324;-63
2022/01/24 02:35:11;;;;;;;34.60;14.93;;;-2.20;75.40;;;;;;5165396;27;46288;-64
2022/01/24 02:37:36;;;;;;;28.40;14.23;;;-2.20;75.50;;;;;;5160442;27;46369;-63
2022/01/24 02:40:16;;;;;;;31.23;14.37;;;-2.30;75.50;;;;;;5154805;27;47009;-64
2022/01/24 02:48:28;;;;;;;24.63;13.50;;;-2.30;75.60;;;;;;5156526;27;46576;-63
2022/01/24 02:53:30;;;;;;;25.05;12.55;;;-2.30;75.50;;;;;;5159705;27;46288;-63
2022/01/24 02:56:01;;;;;;;23.33;12.65;;;-2.30;75.50;;;;;;5154351;27;45852;-65
2022/01/24 02:58:28;;;;;;;26.70;13.15;;;-2.40;75.60;;;;;;5155626;27;46424;-63
2022/01/24 03:00:54;;;;;;;26.88;12.95;;;-2.30;75.40;;;;;;5154950;27;46392;-63
2022/01/24 03:03:23;;;;;;;24.80;12.52;;;-2.40;75.40;;;;;;5154932;27;46396;-64
2022/01/24 03:05:51;;;;;;;22.95;12.95;;;-2.40;75.50;;;;;;5155946;27;46451;-65
2022/01/24 03:08:20;;;;;;;20.90;11.73;;;-2.40;75.50;;;;;;5151337;27;46176;-63
2022/01/24 03:10:47;;;;;;;23.17;12.70;;;-2.50;75.40;;;;;;5151912;27;47106;-63
2022/01/24 03:15:53;;;;;;;24.80;12.70;;;-2.50;75.60;;;;;;5148407;27;46455;-63
2022/01/24 03:18:19;;;;;;;23.08;12.25;;;-2.50;75.50;;;;;;5155118;27;46814;-63
2022/01/24 03:20:45;;;;;;;23.38;12.02;;;-2.50;75.50;;;;;;5155516;27;47171;-64
2022/01/24 03:23:15;;;;;;;29.35;13.20;;;-2.60;75.40;;;;;;5152641;27;46220;-63
2022/01/24 03:25:42;;;;;;;26.23;13.45;;;-2.50;75.50;;;;;;5152834;27;46371;-63
2022/01/24 03:28:08;;;;;;;26.80;12.73;;;-2.60;75.30;;;;;;5150870;27;46500;-63
2022/01/24 03:30:34;;;;;;;22.63;12.20;;;-2.50;75.40;;;;;;5152273;27;46480;-62
2022/01/24 03:33:01;;;;;;;28.10;12.15;;;-2.60;75.30;;;;;;5153126;27;46225;-61
2022/01/24 03:35:30;;;;;;;26.77;13.60;;;-2.60;75.40;;;;;;5154735;27;46516;-64
2022/01/24 03:37:55;;;;;;;23.42;12.30;;;-2.60;75.30;;;;;;5159163;27;46474;-63
2022/01/24 03:40:21;;;;;;;27.23;12.87;;;-2.60;75.20;;;;;;5156724;27;46257;-64
2022/01/24 03:42:47;;;;;;;28.50;12.83;;;-2.60;75.20;;;;;;5160967;27;46376;-62
2022/01/24 03:45:16;;;;;;;27.57;14.03;;;-2.60;75.20;;;;;;5163290;27;46444;-64
2022/01/24 03:47:55;;;;;;;20.05;11.60;;;-2.60;75.30;;;;;;5152231;27;46290;-64
2022/01/24 03:50:24;;;;;;;24.10;12.30;;;-2.60;75.40;;;;;;5152826;27;47141;-62
2022/01/24 03:52:50;;;;;;;27.88;13.40;;;-2.60;75.30;;;;;;5150564;27;46527;-63
2022/01/24 03:55:15;;;;;;;24.43;11.93;;;-2.60;75.20;;;;;;5153179;27;46535;-64
2022/01/24 03:57:41;;;;;;;30.03;13.23;;;-2.60;75.20;;;;;;5156318;27;45988;-64
2022/01/24 04:00:08;;;;;;;29.77;13.97;;;-2.60;75.10;;;;;;5158628;27;46363;-64
2022/01/24 04:02:35;;;;;;;26.10;12.98;;;-2.60;75.00;;;;;;5155680;27;46254;-64
2022/01/24 04:05:00;;;;;;;22.70;12.43;;;-2.60;75.10;;;;;;5158146;27;46354;-63
2022/01/24 04:07:26;;;;;;;23.23;12.77;;;-2.60;75.00;;;;;;5153273;27;45826;-64
2022/01/24 04:09:52;;;;;;;26.80;13.90;;;-2.60;74.90;;;;;;5151926;27;46360;-63
2022/01/24 04:12:24;;;;;;;30.57;14.30;;;-2.60;74.90;;;;;;5153136;27;46433;-63
2022/01/24 04:22:37;;;;;;;38.63;18.08;;;-2.50;74.80;;;;;;5152206;27;46667;-61
2022/01/24 04:25:05;;;;;;;34.53;15.68;;;-2.50;74.90;;;;;;5156176;27;46382;-63
2022/01/24 04:27:31;;;;;;;38.35;16.50;;;-2.50;75.00;;;;;;5159145;27;46369;-64
2022/01/24 04:29:59;;;;;;;39.67;17.20;;;-2.50;75.00;;;;;;5161844;27;46341;-63
2022/01/24 04:32:25;;;;;;;37.75;17.33;;;-2.40;75.10;;;;;;5157067;27;46319;-63
2022/01/24 04:34:50;;;;;;;38.43;16.93;;;-2.40;75.00;;;;;;5157251;27;46646;-63
2022/01/24 04:37:17;;;;;;;40.77;17.33;;;-2.40;74.80;;;;;;5161287;27;46571;-63
2022/01/24 04:39:45;;;;;;;36.75;17.02;;;-2.30;74.80;;;;;;5158216;27;46204;-63
2022/01/24 04:42:22;;;;;;;38.42;17.23;;;-2.30;74.80;;;;;;5152288;27;46291;-63
2022/01/24 04:47:33;;;;;;;39.63;16.60;;;-2.20;75.00;;;;;;5152566;27;46276;-62
2022/01/24 04:55:11;;;;;;;34.17;16.05;;;-2.10;75.20;;;;;;5159809;27;46400;-62
2022/01/24 04:57:37;;;;;;;38.40;16.23;;;-2.10;75.10;;;;;;5156153;27;46566;-62
2022/01/24 05:00:06;;;;;;;41.10;16.90;;;-2.10;75.20;;;;;;5149426;27;46143;-63
2022/01/24 05:02:35;;;;;;;36.03;17.13;;;-2.00;75.30;;;;;;5150102;27;45902;-63
2022/01/24 05:05:00;;;;;;;41.95;17.20;;;-2.00;75.50;;;;;;5151956;27;46444;-63
2022/01/24 05:07:29;;;;;;;42.70;17.20;;;-2.00;75.70;;;;;;5152592;27;46530;-62
2022/01/24 05:10:09;;;;;;;41.10;16.35;;;-2.00;75.60;;;;;;5154481;27;46411;-63
2022/01/24 05:26:23;;;;;;;36.58;16.92;;;-2.10;76.10;;;;;;5142031;27;46295;-61
2022/01/24 05:28:49;;;;;;;40.03;16.98;;;-2.00;76.10;;;;;;5155512;27;46405;-63
2022/01/24 05:31:18;;;;;;;46.47;19.63;;;-2.00;76.10;;;;;;5151360;27;46174;-62
2022/01/24 05:33:43;;;;;;;47.47;19.02;;;-2.00;76.10;;;;;;5148637;27;46391;-62
2022/01/24 05:36:09;;;;;;;46.47;20.97;;;-2.00;76.10;;;;;;5162391;27;46250;-62
2022/01/24 05:38:35;;;;;;;55.77;22.90;;;-2.10;76.30;;;;;;5155574;27;45873;-63
2022/01/24 05:41:01;;;;;;;51.67;22.00;;;-2.10;76.40;;;;;;5151382;27;46352;-62
2022/01/24 05:43:29;;;;;;;46.58;19.33;;;-2.20;76.30;;;;;;5160536;27;46355;-63
2022/01/24 05:45:54;;;;;;;44.75;19.35;;;-2.10;76.30;;;;;;5156300;27;46455;-63
2022/01/24 05:48:20;;;;;;;45.47;18.27;;;-2.10;76.20;;;;;;5153285;27;46409;-62
2022/01/24 05:50:45;;;;;;;40.40;17.80;;;-2.20;75.90;;;;;;5154964;27;46320;-63
2022/01/24 05:53:11;;;;;;;38.57;17.37;;;-2.10;76.10;;;;;;5150320;27;46454;-62
2022/01/24 05:55:37;;;;;;;45.53;18.77;;;-2.20;76.10;;;;;;5150134;27;46434;-63
2022/01/24 05:58:05;;;;;;;44.60;16.73;;;-2.20;76.10;;;;;;5147925;27;46418;-63
2022/01/24 06:00:30;;;;;;;43.38;17.13;;;-2.30;75.90;;;;;;5152688;27;46359;-62
2022/01/24 06:02:56;;;;;;;44.30;19.20;;;-2.20;76.10;;;;;;5155585;27;46205;-62
2022/01/24 06:05:22;;;;;;;46.97;19.47;;;-2.20;76.00;;;;;;5155461;27;46291;-62
2022/01/24 06:07:49;;;;;;;56.50;21.70;;;-2.30;75.80;;;;;;5161482;27;46513;-62
2022/01/24 06:10:15;;;;;;;46.25;18.98;;;-2.30;75.80;;;;;;5162403;27;47274;-62
2022/01/24 06:12:58;;;;;;;47.03;19.30;;;-2.30;75.80;;;;;;5144558;27;46577;-63
2022/01/24 06:15:23;;;;;;;44.83;18.55;;;-2.30;75.80;;;;;;5151357;27;46428;-61
2022/01/24 06:17:49;;;;;;;39.50;18.40;;;-2.30;75.70;;;;;;5151875;27;46358;-62
2022/01/24 06:20:14;;;;;;;36.40;19.20;;;-2.40;75.70;;;;;;5152822;27;46383;-61
2022/01/24 06:22:40;;;;;;;38.10;18.43;;;-2.40;75.70;;;;;;5150119;27;46350;-62
2022/01/24 06:25:08;;;;;;;44.55;19.88;;;-2.40;75.70;;;;;;5153405;27;46347;-64
2022/01/24 06:27:34;;;;;;;38.88;16.92;;;-2.50;75.70;;;;;;5157126;27;46560;-63
2022/01/24 06:29:59;;;;;;;38.03;17.93;;;-2.50;75.80;;;;;;5154293;27;48826;-63
2022/01/24 06:32:25;;;;;;;48.63;18.10;;;-2.50;75.90;;;;;;5154087;27;46391;-63
2022/01/24 06:34:50;;;;;;;33.30;14.67;;;-2.50;76.00;;;;;;5156706;27;46297;-61
2022/01/24 06:37:16;;;;;;;28.30;13.53;;;-2.50;75.90;;;;;;5152898;27;46456;-63
2022/01/24 06:39:41;;;;;;;31.97;14.37;;;-2.60;75.80;;;;;;5155329;27;46275;-63
2022/01/24 06:42:13;;;;;;;29.70;14.37;;;-2.60;75.80;;;;;;5157326;27;46394;-62
2022/01/24 06:44:40;;;;;;;30.52;13.45;;;-2.60;75.90;;;;;;5151499;27;46405;-62
2022/01/24 06:47:06;;;;;;;28.30;13.48;;;-2.70;75.90;;;;;;5154548;27;46629;-63
2022/01/24 06:49:32;;;;;;;23.08;11.80;;;-2.70;76.00;;;;;;5158610;27;46288;-64
2022/01/24 06:51:58;;;;;;;29.60;13.57;;;-2.70;75.90;;;;;;5156622;27;45910;-64
2022/01/24 06:54:23;;;;;;;27.50;13.85;;;-2.70;75.90;;;;;;5155562;27;46346;-64
2022/01/24 06:56:54;;;;;;;28.90;14.80;;;-2.70;75.80;;;;;;5165975;27;46354;-63
2022/01/24 06:59:20;;;;;;;27.90;14.27;;;-2.70;75.90;;;;;;5158452;27;46571;-63
2022/01/24 07:01:45;;;;;;;35.03;15.20;;;-2.70;76.10;;;;;;5153404;27;46325;-62
2022/01/24 07:04:11;;;;;;;36.50;17.50;;;-2.70;75.90;;;;;;5148701;27;46453;-63
2022/01/24 07:06:36;;;;;;;36.60;16.03;;;-2.60;75.80;;;;;;5160759;27;46312;-63
2022/01/24 07:09:03;;;;;;;36.47;16.30;;;-2.60;75.60;;;;;;5157085;27;46424;-63
2022/01/24 07:11:29;;;;;;;36.95;16.90;;;-2.50;75.50;;;;;;5155284;27;46457;-62
2022/01/24 07:13:54;;;;;;;40.13;18.30;;;-2.50;76.50;;;;;;5157724;27;46253;-63
2022/01/24 07:16:20;;;;;;;43.17;19.57;;;-2.50;75.20;;;;;;5156555;27;46479;-61
2022/01/24 07:18:58;;;;;;;33.10;17.93;;;-2.40;75.30;;;;;;5155222;27;46414;-62
2022/01/24 07:21:24;;;;;;;40.47;15.98;;;-2.30;75.20;;;;;;5160723;27;46297;-62
2022/01/24 07:23:50;;;;;;;40.25;16.75;;;-2.30;75.10;;;;;;5158639;27;46405;-63
2022/01/24 07:26:16;;;;;;;31.00;15.33;;;-2.30;75.10;;;;;;5154708;27;46412;-63
2022/01/24 07:28:44;;;;;;;27.17;14.30;;;-2.30;75.10;;;;;;5153804;27;47181;-63
2022/01/24 07:31:10;;;;;;;30.50;14.07;;;-2.30;75.00;;;;;;5156356;27;46451;-63
2022/01/24 07:33:36;;;;;;;23.35;12.55;;;-2.30;75.10;;;;;;5157237;27;46386;-63
2022/01/24 07:36:04;;;;;;;25.80;12.60;;;-2.20;75.20;;;;;;5159517;27;46439;-62
2022/01/24 07:38:29;;;;;;;24.17;13.00;;;-2.20;75.20;;;;;;5162373;27;46134;-62
2022/01/24 07:40:56;;;;;;;23.30;12.93;;;-2.20;75.10;;;;;;5157423;27;46424;-62
2022/01/24 07:43:22;;;;;;;24.50;12.15;;;-2.10;75.10;;;;;;5153374;27;46525;-62
2022/01/24 07:45:49;;;;;;;23.35;12.00;;;-2.10;75.00;;;;;;5164058;27;46394;-63
2022/01/24 07:48:16;;;;;;;27.75;13.18;;;-2.00;75.10;;;;;;5160465;27;46398;-62
2022/01/24 07:50:44;;;;;;;25.15;12.25;;;-1.90;75.10;;;;;;5158633;27;46608;-62
2022/01/24 07:53:13;;;;;;;42.03;21.73;;;-1.90;75.00;;;;;;5158034;27;46229;-63
2022/01/24 07:55:39;;;;;;;65.80;30.02;;;-1.80;74.90;;;;;;5152737;27;46524;-63
2022/01/24 07:58:06;;;;;;;61.38;31.70;;;-1.60;74.70;;;;;;5151056;27;47299;-63
2022/01/24 08:00:33;;;;;;;62.53;30.13;;;-1.60;74.60;;;;;;5150191;27;46538;-62
2022/01/24 08:02:59;;;;;;;46.40;22.73;;;-1.50;74.70;;;;;;5150447;27;46039;-61
2022/01/24 08:05:26;;;;;;;47.90;22.27;;;-1.40;74.90;;;;;;5153476;27;46357;-62
2022/01/24 08:07:52;;;;;;;34.25;19.48;;;-1.20;74.80;;;;;;5152702;27;46064;-61
2022/01/24 08:10:18;;;;;;;35.40;21.50;;;-1.00;74.50;;;;;;5160420;27;46384;-62
2022/01/24 08:12:44;;;;;;;32.53;18.17;;;-1.00;74.50;;;;;;5159681;27;46329;-62
2022/01/24 08:15:14;;;;;;;33.63;17.67;;;-0.90;75.20;;;;;;5152948;27;46288;-62
2022/01/24 08:17:44;;;;;;;56.38;26.48;;;-0.80;75.20;;;;;;5146279;27;46395;-62
2022/01/24 08:20:12;;;;;;;63.17;33.97;;;-0.80;75.20;;;;;;5148859;27;46400;-62
2022/01/24 08:22:38;;;;;;;64.28;30.95;;;-0.70;75.40;;;;;;5151430;27;46311;-62
2022/01/24 08:25:04;;;;;;;70.63;34.50;;;-0.60;75.50;;;;;;5153326;27;46300;-64
2022/01/24 08:27:31;;;;;;;62.35;30.55;;;-0.60;75.60;;;;;;5154807;27;46412;-63
2022/01/24 08:29:58;;;;;;;63.80;31.38;;;-0.50;75.80;;;;;;5157697;27;46200;-62
2022/01/24 08:32:24;;;;;;;58.75;30.35;;;-0.30;75.60;;;;;;5159030;27;46298;-62
2022/01/24 08:34:50;;;;;;;64.85;30.05;;;-0.10;75.50;;;;;;5147495;27;45881;-63
2022/01/24 08:37:15;;;;;;;58.97;28.02;;;0.00;75.20;;;;;;5148455;27;46985;-63
2022/01/24 08:39:43;;;;;;;54.53;26.80;;;0.20;75.40;;;;;;5151807;27;46370;-61
2022/01/24 08:47:05;;;;;;;50.43;24.33;;;0.40;75.40;;;;;;5155690;27;46109;-61
2022/01/24 08:49:31;;;;;;;44.38;21.98;;;0.60;75.30;;;;;;5153932;27;45941;-61
2022/01/24 08:51:58;;;;;;;39.78;22.38;;;0.90;74.60;;;;;;5155950;27;46548;-62
2022/01/24 08:54:24;;;;;;;38.40;19.38;;;1.40;74.10;;;;;;5158732;27;46442;-62
2022/01/24 08:56:49;;;;;;;41.63;22.13;;;1.60;73.10;;;;;;5154891;27;46381;-63
2022/01/24 08:59:15;;;;;;;53.70;26.27;;;1.70;73.10;;;;;;5161880;27;46379;-62
2022/01/24 09:01:40;;;;;;;50.73;25.13;;;1.80;73.20;;;;;;5159332;27;46370;-61
2022/01/24 09:04:06;;;;;;;44.47;23.50;;;2.00;73.30;;;;;;5153307;27;45894;-62
2022/01/24 09:06:32;;;;;;;42.70;23.20;;;2.00;73.20;;;;;;5155718;27;46310;-61
2022/01/24 09:09:02;;;;;;;34.50;19.07;;;2.10;73.20;;;;;;5159212;27;46486;-62
2022/01/24 09:11:34;;;;;;;34.55;17.17;;;2.20;73.30;;;;;;5155914;27;46595;-62
2022/01/24 09:14:00;;;;;;;32.78;18.50;;;2.20;73.50;;;;;;5153183;27;46424;-62
2022/01/24 09:16:27;;;;;;;30.58;17.60;;;2.40;73.10;;;;;;5154886;27;46480;-62
2022/01/24 09:18:53;;;;;;;34.42;17.63;;;2.40;73.10;;;;;;5154517;27;46351;-62
2022/01/24 09:21:23;;;;;;;27.50;15.00;;;2.60;72.90;;;;;;5149897;27;46584;-63
2022/01/24 09:23:48;;;;;;;32.47;18.38;;;2.60;72.90;;;;;;5160591;27;46275;-62
2022/01/24 09:26:14;;;;;;;29.33;17.63;;;2.50;73.10;;;;;;5158403;27;46514;-62
2022/01/24 09:28:41;;;;;;;30.40;15.98;;;2.60;73.30;;;;;;5155557;27;45998;-64
2022/01/24 09:31:07;;;;;;;26.57;15.73;;;2.70;72.90;;;;;;5147360;27;46308;-62
2022/01/24 09:33:33;;;;;;;26.57;15.30;;;2.70;72.40;;;;;;5151879;27;46557;-63
2022/01/24 09:36:00;;;;;;;26.05;14.50;;;2.80;72.00;;;;;;5153610;27;46290;-65
2022/01/24 09:38:29;;;;;;;38.45;18.52;;;2.90;71.90;;;;;;5156313;27;46546;-62
2022/01/24 09:41:00;;;;;;;31.48;15.65;;;2.90;71.80;;;;;;5159027;27;46426;-63
2022/01/24 09:43:25;;;;;;;30.85;15.55;;;2.70;72.20;;;;;;5156885;27;46427;-63
2022/01/24 09:45:51;;;;;;;28.70;15.10;;;2.70;72.60;;;;;;5152623;27;47294;-62
2022/01/24 09:48:17;;;;;;;31.80;16.33;;;2.80;72.90;;;;;;5160820;27;46270;-62
2022/01/24 09:50:45;;;;;;;31.98;17.15;;;2.90;72.50;;;;;;5160927;27;46367;-62
2022/01/24 09:53:15;;;;;;;34.85;16.60;;;3.10;72.00;;;;;;5153767;27;46431;-63
2022/01/24 09:55:41;;;;;;;32.30;18.77;;;3.20;72.10;;;;;;5156780;27;46365;-63
2022/01/24 09:58:10;;;;;;;30.97;16.93;;;3.10;72.10;;;;;;5156516;27;45759;-63
2022/01/24 10:00:35;;;;;;;34.75;18.27;;;3.00;72.30;;;;;;5150724;27;46420;-62
2022/01/24 10:03:01;;;;;;;31.13;16.03;;;3.10;72.00;;;;;;5148934;27;46542;-61
2022/01/24 10:05:33;;;;;;;30.85;16.08;;;3.20;72.10;;;;;;5146849;27;46325;-62
2022/01/24 10:08:03;;;;;;;26.98;14.15;;;3.10;72.00;;;;;;5153381;27;46510;-60
2022/01/24 10:10:52;;;;;;;33.63;15.50;;;3.20;72.10;;;;;;5152985;27;45780;-62
2022/01/24 10:19:22;;;;;;;29.17;15.27;;;3.10;72.00;;;;;;5129125;27;46307;-63
2022/01/24 10:21:50;;;;;;;28.60;13.57;;;3.10;72.00;;;;;;5150737;27;45873;-63
2022/01/24 10:24:44;;;;;;;30.63;15.80;;;3.20;72.10;;;;;;5152424;27;46781;-61
2022/01/24 10:27:28;;;;;;;39.28;15.85;;;3.30;72.20;;;;;;5151409;27;46550;-63
2022/01/24 10:29:56;;;;;;;28.05;14.15;;;3.20;72.10;;;;;;5156859;27;46308;-62
2022/01/24 10:32:43;;;;;;;26.15;13.25;;;3.20;72.20;;;;;;5158857;27;46166;-62
2022/01/24 10:35:42;;;;;;;32.17;14.88;;;3.10;72.00;;;;;;5162127;27;46613;-62
2022/01/24 10:38:24;;;;;;;27.02;13.20;;;3.30;72.20;;;;;;5160621;27;46226;-63
2022/01/24 10:41:06;;;;;;;31.17;14.32;;;3.50;72.30;;;;;;5155990;27;46243;-62
2022/01/24 10:43:33;;;;;;;29.05;13.32;;;3.50;72.40;;;;;;5153289;27;46450;-61
2022/01/24 10:45:59;;;;;;;28.38;14.00;;;3.50;72.30;;;;;;5156682;27;46405;-63
2022/01/24 10:48:31;;;;;;;27.92;15.20;;;3.60;72.50;;;;;;5157500;27;46564;-63
2022/01/24 10:51:11;;;;;;;25.70;13.10;;;3.70;72.00;;;;;;5158107;27;46269;-62
2022/01/24 10:53:50;;;;;;;25.60;12.45;;;3.80;71.20;;;;;;5156880;27;46269;-62
2022/01/24 10:56:34;;;;;;;29.73;14.00;;;3.70;71.10;;;;;;5158784;27;45769;-64
2022/01/24 10:59:22;;;;;;;27.23;15.27;;;3.50;72.20;;;;;;5160052;27;46589;-62
2022/01/24 11:01:58;;;;;;;30.00;14.07;;;3.50;72.30;;;;;;5161219;27;46490;-63
2022/01/24 11:04:26;;;;;;;35.83;14.48;;;3.50;72.30;;;;;;5162819;27;46347;-63
2022/01/24 11:07:03;;;;;;;34.65;16.10;;;3.60;72.50;;;;;;5156972;27;45888;-63
2022/01/24 11:09:34;;;;;;;25.38;14.50;;;3.70;71.50;;;;;;5155021;27;46556;-61
2022/01/24 11:12:08;;;;;;;29.55;14.43;;;3.70;71.40;;;;;;5160243;27;46427;-62
2022/01/24 11:14:36;;;;;;;33.00;15.75;;;3.70;71.20;;;;;;5157533;27;46458;-62
2022/01/24 11:17:02;;;;;;;38.83;17.60;;;3.80;71.20;;;;;;5155646;27;46528;-63
2022/01/24 11:19:36;;;;;;;32.30;14.35;;;3.90;70.90;;;;;;5156369;27;46340;-63
2022/01/24 11:22:05;;;;;;;29.80;14.82;;;4.20;70.50;;;;;;5154857;27;46341;-62
2022/01/24 11:24:46;;;;;;;26.83;13.85;;;4.30;70.00;;;;;;5152732;27;46472;-63
2022/01/24 11:27:13;;;;;;;28.73;14.00;;;4.30;69.50;;;;;;5161287;27;46272;-62
2022/01/24 11:29:41;;;;;;;26.52;13.25;;;4.10;69.90;;;;;;5160858;27;48323;-61
2022/01/24 11:32:12;;;;;;;34.13;15.02;;;4.00;70.20;;;;;;5153782;27;46432;-63
2022/01/24 11:34:39;;;;;;;42.65;20.83;;;3.90;70.30;;;;;;5151227;27;46423;-62
2022/01/24 11:37:07;;;;;;;38.92;19.13;;;4.00;70.40;;;;;;5151351;27;46333;-63
2022/01/24 11:39:34;;;;;;;41.42;18.85;;;4.00;70.10;;;;;;5155871;27;46674;-62
2022/01/24 11:42:02;;;;;;;34.50;16.42;;;4.00;70.30;;;;;;5156774;27;46138;-61
2022/01/24 11:44:46;;;;;;;34.65;17.10;;;4.00;70.20;;;;;;5156915;27;46490;-61
2022/01/24 11:47:23;;;;;;;32.30;14.33;;;4.00;70.20;;;;;;5158264;27;46392;-62
2022/01/24 11:49:53;;;;;;;36.33;15.77;;;3.90;70.30;;;;;;5153059;27;46475;-63
2022/01/24 11:52:28;;;;;;;37.17;15.50;;;3.90;70.40;;;;;;5163395;27;46329;-63
2022/01/24 11:57:40;;;;;;;50.75;21.40;;;4.00;70.50;;;;;;5153729;27;46461;-64
2022/01/24 12:00:06;;;;;;;40.28;18.25;;;4.10;70.40;;;;;;5156477;27;47561;-63
2022/01/24 12:02:42;;;;;;;71.43;27.93;;;4.00;70.00;;;;;;5155507;27;46295;-62
2022/01/24 12:05:24;;;;;;;40.58;18.95;;;3.90;70.00;;;;;;5153725;27;46318;-62
2022/01/24 12:07:52;;;;;;;108.00;41.60;;;4.10;69.90;;;;;;5153976;27;46505;-63
2022/01/24 12:10:27;;;;;;;42.90;18.95;;;4.10;69.70;;;;;;5157353;27;46440;-62
2022/01/24 12:13:27;;;;;;;71.78;27.08;;;4.10;69.60;;;;;;5152711;27;46415;-62
2022/01/24 12:16:02;;;;;;;157.52;54.53;;;4.20;69.80;;;;;;5141061;27;46443;-63
2022/01/24 12:18:28;;;;;;;36.92;17.10;;;4.30;69.50;;;;;;5161602;27;45851;-62
2022/01/24 12:21:06;;;;;;;242.30;79.50;;;4.30;69.30;;;;;;5158331;27;47165;-62
2022/01/24 12:23:36;;;;;;;55.60;23.52;;;4.30;69.40;;;;;;5155523;27;46460;-62
2022/01/24 12:26:05;;;;;;;41.05;19.00;;;4.30;69.20;;;;;;5151691;27;46320;-61
2022/01/24 12:28:43;;;;;;;33.70;18.10;;;4.10;69.60;;;;;;5153181;27;46403;-62
2022/01/24 12:31:22;;;;;;;29.15;15.20;;;4.00;69.40;;;;;;5149973;27;46958;-63
2022/01/24 12:33:53;;;;;;;33.17;17.05;;;4.10;69.40;;;;;;5152314;27;46447;-62
2022/01/24 12:39:19;;;;;;;28.47;14.80;;;4.30;69.40;;;;;;5158283;27;46385;-61
2022/01/24 12:42:01;;;;;;;31.88;16.02;;;4.20;69.30;;;;;;5159841;27;46423;-61
2022/01/24 12:47:05;;;;;;;30.50;18.30;;;4.20;69.00;;;;;;5147596;27;46457;-62
2022/01/24 12:49:31;;;;;;;34.53;17.70;;;4.20;69.10;;;;;;5152410;27;46570;-62
2022/01/24 12:52:05;;;;;;;30.83;15.75;;;4.20;69.40;;;;;;5153379;27;46492;-63
2022/01/24 12:54:33;;;;;;;31.90;16.30;;;4.30;69.00;;;;;;5154292;27;46375;-62
2022/01/24 12:57:05;;;;;;;29.23;14.68;;;4.30;69.30;;;;;;5156055;27;45800;-63
2022/01/24 12:59:32;;;;;;;34.20;17.07;;;4.30;69.30;;;;;;5157479;27;46570;-63
2022/01/24 13:02:00;;;;;;;27.90;15.67;;;4.30;69.40;;;;;;5159229;27;46385;-63
2022/01/24 13:04:40;;;;;;;31.35;18.17;;;4.20;69.40;;;;;;5156472;27;46296;-63
2022/01/24 13:07:08;;;;;;;25.83;15.60;;;4.30;69.10;;;;;;5160812;27;46432;-62
2022/01/24 13:09:35;;;;;;;29.33;14.53;;;4.30;68.60;;;;;;5153872;27;46534;-63
2022/01/24 13:12:09;;;;;;;33.22;16.00;;;4.30;68.80;;;;;;5154914;27;46510;-63
2022/01/24 13:14:55;;;;;;;25.13;12.98;;;4.30;68.80;;;;;;5156261;27;46410;-62
2022/01/24 13:22:59;;;;;;;26.73;13.80;;;4.20;70.40;;;;;;5153575;27;47093;-62
2022/01/24 13:25:28;;;;;;;28.55;14.68;;;4.20;69.40;;;;;;5154399;27;46532;-62
2022/01/24 13:27:54;;;;;;;27.80;13.73;;;4.10;69.10;;;;;;5151058;27;46433;-61
2022/01/24 13:30:22;;;;;;;30.77;15.90;;;4.10;69.50;;;;;;5159061;27;46358;-64
2022/01/24 13:32:58;;;;;;;27.60;13.98;;;4.00;69.70;;;;;;5157674;27;46424;-61
2022/01/24 13:36:04;;;;;;;26.10;14.55;;;4.00;69.50;;;;;;5151927;27;46327;-63
2022/01/24 13:38:33;;;;;;;29.10;14.48;;;4.10;69.40;;;;;;5127540;27;47295;-63
2022/01/24 13:41:11;;;;;;;31.00;15.90;;;4.00;69.40;;;;;;5158002;27;46574;-63
2022/01/24 13:43:39;;;;;;;26.40;14.68;;;4.00;69.40;;;;;;5152132;27;46418;-62
2022/01/24 13:46:08;;;;;;;31.35;16.23;;;4.00;69.70;;;;;;5154991;27;46196;-60
2022/01/24 13:48:40;;;;;;;26.30;13.70;;;4.00;70.00;;;;;;5155645;27;46334;-62
2022/01/24 13:51:07;;;;;;;24.23;13.90;;;4.00;70.00;;;;;;5150993;27;46421;-62
2022/01/24 13:53:35;;;;;;;25.73;14.48;;;4.00;69.80;;;;;;5155340;27;46316;-63
2022/01/24 13:56:17;;;;;;;27.48;14.43;;;4.10;69.60;;;;;;5160480;27;46381;-63
2022/01/24 13:59:15;;;;;;;33.17;15.18;;;4.10;69.40;;;;;;5158096;27;46410;-62
2022/01/24 14:01:53;;;;;;;25.77;13.97;;;4.00;69.20;;;;;;5157179;27;46394;-64
2022/01/24 14:04:52;;;;;;;29.60;15.85;;;3.90;69.70;;;;;;5156840;27;47069;-62
2022/01/24 14:07:41;;;;;;;24.58;14.10;;;3.90;69.50;;;;;;5156969;27;46503;-62
2022/01/24 14:10:15;;;;;;;29.98;14.38;;;3.80;69.90;;;;;;5163467;27;46481;-63
2022/01/24 14:12:46;;;;;;;31.77;14.73;;;3.80;69.80;;;;;;5159974;27;46383;-62
2022/01/24 14:20:43;;;;;;;31.33;15.05;;;3.30;71.30;;;;;;5154803;27;46447;-61
2022/01/24 14:23:28;;;;;;;28.67;14.23;;;3.50;71.00;;;;;;5157583;27;46590;-62
2022/01/24 14:25:57;;;;;;;29.63;14.82;;;3.50;70.90;;;;;;5161265;27;46484;-62
2022/01/24 14:28:23;;;;;;;25.67;13.90;;;3.50;70.90;;;;;;5150783;27;46431;-63
2022/01/24 14:30:55;;;;;;;28.23;14.40;;;3.70;70.50;;;;;;5154170;27;46373;-60
2022/01/24 14:33:30;;;;;;;26.42;13.52;;;3.70;70.30;;;;;;5152405;27;46415;-62
2022/01/24 14:36:17;;;;;;;33.03;14.70;;;3.70;70.20;;;;;;5152079;27;46438;-61
2022/01/24 14:38:59;;;;;;;29.63;14.80;;;3.80;70.10;;;;;;5156229;27;45835;-63
2022/01/24 14:41:29;;;;;;;31.40;16.05;;;3.80;70.10;;;;;;5153671;27;46336;-62
2022/01/24 14:46:47;;;;;;;28.15;15.73;;;3.60;70.70;;;;;;5164997;27;46247;-63
2022/01/24 14:49:20;;;;;;;32.72;16.20;;;3.70;70.40;;;;;;5151867;27;46478;-62